sensor_id;sensor_type;location;lat;lon;timestamp;temperature;humidity
22607;DHT22;11470;20.968;105.834;2023-05-16T00:02:32;27.10;99.90
22607;DHT22;11470;20.968;105.834;2023-05-16T00:07:38;27.30;99.90
22607;DHT22;11470;20.968;105.834;2023-05-16T00:12:43;27.40;99.90
22607;DHT22;11470;20.968;105.834;2023-05-16T00:17:49;27.40;99.90
22607;DHT22;11470;20.968;105.834;2023-05-16T00:22:55;27.50;99.90
22607;DHT22;11470;20.968;105.834;2023-05-16T00:28:04;27.60;99.90
22607;DHT22;11470;20.968;105.834;2023-05-16T00:33:09;27.70;99.90
22607;DHT22;11470;20.968;105.834;2023-05-16T00:38:15;28.10;99.90
22607;DHT22;11470;20.968;105.834;2023-05-16T00:43:20;28.30;99.90
22607;DHT22;11470;20.968;105.834;2023-05-16T00:48:27;28.30;99.90
22607;DHT22;11470;20.968;105.834;2023-05-16T00:53:35;28.30;99.90
22607;DHT22;11470;20.968;105.834;2023-05-16T00:58:41;29.00;99.90
22607;DHT22;11470;20.968;105.834;2023-05-16T01:03:46;29.00;99.90
22607;DHT22;11470;20.968;105.834;2023-05-16T01:08:53;28.80;99.90
22607;DHT22;11470;20.968;105.834;2023-05-16T01:30:16;29.40;99.90
22607;DHT22;11470;20.968;105.834;2023-05-16T01:35:39;30.10;99.90
22607;DHT22;11470;20.968;105.834;2023-05-16T01:41:42;31.00;99.90
22607;DHT22;11470;20.968;105.834;2023-05-16T01:47:10;31.50;99.90
22607;DHT22;11470;20.968;105.834;2023-05-16T01:52:31;31.50;99.90
22607;DHT22;11470;20.968;105.834;2023-05-16T01:57:42;31.10;99.90
22607;DHT22;11470;20.968;105.834;2023-05-16T02:03:07;30.80;99.90
22607;DHT22;11470;20.968;105.834;2023-05-16T02:08:13;30.60;99.90
22607;DHT22;11470;20.968;105.834;2023-05-16T02:13:18;30.90;99.90
22607;DHT22;11470;20.968;105.834;2023-05-16T02:18:24;31.20;99.90
22607;DHT22;11470;20.968;105.834;2023-05-16T02:23:29;31.50;99.90
22607;DHT22;11470;20.968;105.834;2023-05-16T02:28:35;31.90;99.90
22607;DHT22;11470;20.968;105.834;2023-05-16T02:33:40;32.20;99.90
22607;DHT22;11470;20.968;105.834;2023-05-16T02:38:55;32.30;99.90
22607;DHT22;11470;20.968;105.834;2023-05-16T02:44:03;32.60;99.90
22607;DHT22;11470;20.968;105.834;2023-05-16T02:49:09;32.70;99.90
22607;DHT22;11470;20.968;105.834;2023-05-16T02:54:14;32.90;99.90
22607;DHT22;11470;20.968;105.834;2023-05-16T02:59:19;33.10;99.90
22607;DHT22;11470;20.968;105.834;2023-05-16T03:04:24;33.40;99.90
22607;DHT22;11470;20.968;105.834;2023-05-16T03:09:30;33.70;99.90
22607;DHT22;11470;20.968;105.834;2023-05-16T03:14:35;34.00;99.90
22607;DHT22;11470;20.968;105.834;2023-05-16T03:19:42;34.10;99.90
22607;DHT22;11470;20.968;105.834;2023-05-16T03:24:51;33.70;99.90
22607;DHT22;11470;20.968;105.834;2023-05-16T03:29:58;34.00;99.90
22607;DHT22;11470;20.968;105.834;2023-05-16T03:35:06;33.80;99.90
22607;DHT22;11470;20.968;105.834;2023-05-16T03:40:11;33.80;99.90
22607;DHT22;11470;20.968;105.834;2023-05-16T03:45:16;33.50;99.90
22607;DHT22;11470;20.968;105.834;2023-05-16T03:50:22;33.40;99.90
22607;DHT22;11470;20.968;105.834;2023-05-16T03:55:27;33.40;99.90
22607;DHT22;11470;20.968;105.834;2023-05-16T04:00:34;33.60;99.90
22607;DHT22;11470;20.968;105.834;2023-05-16T04:05:40;33.60;99.90
22607;DHT22;11470;20.968;105.834;2023-05-16T04:10:46;33.80;99.90
22607;DHT22;11470;20.968;105.834;2023-05-16T04:15:51;34.00;99.90
22607;DHT22;11470;20.968;105.834;2023-05-16T04:20:57;34.00;99.90
22607;DHT22;11470;20.968;105.834;2023-05-16T04:26:02;33.60;99.90
22607;DHT22;11470;20.968;105.834;2023-05-16T04:38:15;34.00;99.90
22607;DHT22;11470;20.968;105.834;2023-05-16T04:43:21;34.00;99.90
22607;DHT22;11470;20.968;105.834;2023-05-16T04:48:26;34.50;99.90
22607;DHT22;11470;20.968;105.834;2023-05-16T04:53:32;35.70;98.40
22607;DHT22;11470;20.968;105.834;2023-05-16T04:58:37;37.30;94.00
22607;DHT22;11470;20.968;105.834;2023-05-16T05:03:44;36.40;93.50
22607;DHT22;11470;20.968;105.834;2023-05-16T05:08:51;36.60;92.90
22607;DHT22;11470;20.968;105.834;2023-05-16T05:13:57;36.00;92.40
22607;DHT22;11470;20.968;105.834;2023-05-16T05:19:06;36.20;92.10
22607;DHT22;11470;20.968;105.834;2023-05-16T05:24:13;36.00;92.10
22607;DHT22;11470;20.968;105.834;2023-05-16T05:29:18;37.30;90.20
22607;DHT22;11470;20.968;105.834;2023-05-16T05:34:24;38.10;84.30
22607;DHT22;11470;20.968;105.834;2023-05-16T05:39:30;36.80;87.80
22607;DHT22;11470;20.968;105.834;2023-05-16T05:44:35;37.50;85.30
22607;DHT22;11470;20.968;105.834;2023-05-16T05:49:41;37.50;83.70
22607;DHT22;11470;20.968;105.834;2023-05-16T05:54:50;39.70;76.40
22607;DHT22;11470;20.968;105.834;2023-05-16T05:59:55;39.10;75.20
22607;DHT22;11470;20.968;105.834;2023-05-16T06:05:01;39.30;75.10
22607;DHT22;11470;20.968;105.834;2023-05-16T06:10:07;40.50;70.90
22607;DHT22;11470;20.968;105.834;2023-05-16T06:15:13;40.70;68.80
22607;DHT22;11470;20.968;105.834;2023-05-16T06:20:18;39.90;71.50
22607;DHT22;11470;20.968;105.834;2023-05-16T06:25:24;38.80;73.80
22607;DHT22;11470;20.968;105.834;2023-05-16T06:30:29;37.80;77.90
22607;DHT22;11470;20.968;105.834;2023-05-16T06:35:39;37.10;79.50
22607;DHT22;11470;20.968;105.834;2023-05-16T06:40:45;37.80;79.30
22607;DHT22;11470;20.968;105.834;2023-05-16T06:45:51;41.00;71.10
22607;DHT22;11470;20.968;105.834;2023-05-16T06:50:56;43.30;60.10
22607;DHT22;11470;20.968;105.834;2023-05-16T06:56:02;43.50;59.00
22607;DHT22;11470;20.968;105.834;2023-05-16T07:01:07;44.80;57.70
22607;DHT22;11470;20.968;105.834;2023-05-16T07:06:13;44.10;56.60
22607;DHT22;11470;20.968;105.834;2023-05-16T07:11:19;43.00;58.20
22607;DHT22;11470;20.968;105.834;2023-05-16T07:16:25;43.30;60.40
22607;DHT22;11470;20.968;105.834;2023-05-16T07:21:32;44.50;56.00
22607;DHT22;11470;20.968;105.834;2023-05-16T07:26:39;45.40;56.60
22607;DHT22;11470;20.968;105.834;2023-05-16T07:31:45;45.30;55.70
22607;DHT22;11470;20.968;105.834;2023-05-16T07:36:51;45.80;55.80
22607;DHT22;11470;20.968;105.834;2023-05-16T07:41:56;46.40;51.70
22607;DHT22;11470;20.968;105.834;2023-05-16T07:47:02;44.40;53.50
22607;DHT22;11470;20.968;105.834;2023-05-16T07:52:08;43.90;57.80
22607;DHT22;11470;20.968;105.834;2023-05-16T07:57:14;44.60;54.40
22607;DHT22;11470;20.968;105.834;2023-05-16T08:02:20;43.40;55.40
22607;DHT22;11470;20.968;105.834;2023-05-16T08:07:29;43.80;58.20
22607;DHT22;11470;20.968;105.834;2023-05-16T08:12:38;43.70;54.80
22607;DHT22;11470;20.968;105.834;2023-05-16T08:17:44;43.70;55.00
22607;DHT22;11470;20.968;105.834;2023-05-16T08:22:50;43.80;57.30
22607;DHT22;11470;20.968;105.834;2023-05-16T08:27:56;42.20;56.80
22607;DHT22;11470;20.968;105.834;2023-05-16T08:33:02;40.70;60.00
22607;DHT22;11470;20.968;105.834;2023-05-16T08:38:09;39.70;62.70
22607;DHT22;11470;20.968;105.834;2023-05-16T08:43:14;39.00;64.70
22607;DHT22;11470;20.968;105.834;2023-05-16T08:48:22;38.30;66.20
22607;DHT22;11470;20.968;105.834;2023-05-16T08:53:35;38.20;67.50
22607;DHT22;11470;20.968;105.834;2023-05-16T08:58:45;37.90;68.40
22607;DHT22;11470;20.968;105.834;2023-05-16T09:03:51;38.00;63.80
22607;DHT22;11470;20.968;105.834;2023-05-16T09:08:58;37.90;64.00
22607;DHT22;11470;20.968;105.834;2023-05-16T09:14:03;37.90;65.00
22607;DHT22;11470;20.968;105.834;2023-05-16T09:19:12;38.20;69.30
22607;DHT22;11470;20.968;105.834;2023-05-16T09:24:25;37.70;77.80
22607;DHT22;11470;20.968;105.834;2023-05-16T09:29:31;37.40;82.30
22607;DHT22;11470;20.968;105.834;2023-05-16T09:34:47;36.80;81.00
22607;DHT22;11470;20.968;105.834;2023-05-16T09:39:54;36.00;83.50
22607;DHT22;11470;20.968;105.834;2023-05-16T09:44:59;35.40;89.90
22607;DHT22;11470;20.968;105.834;2023-05-16T09:50:08;35.10;91.90
22607;DHT22;11470;20.968;105.834;2023-05-16T09:55:22;35.00;93.90
22607;DHT22;11470;20.968;105.834;2023-05-16T10:00:41;34.70;98.00
22607;DHT22;11470;20.968;105.834;2023-05-16T10:05:49;34.50;96.40
22607;DHT22;11470;20.968;105.834;2023-05-16T10:10:58;34.40;97.40
22607;DHT22;11470;20.968;105.834;2023-05-16T10:16:10;34.30;98.20
22607;DHT22;11470;20.968;105.834;2023-05-16T10:21:17;34.10;99.70
22607;DHT22;11470;20.968;105.834;2023-05-16T10:27:13;34.00;99.90
22607;DHT22;11470;20.968;105.834;2023-05-16T10:32:03;33.80;99.90
22607;DHT22;11470;20.968;105.834;2023-05-16T10:37:10;33.70;99.90
22607;DHT22;11470;20.968;105.834;2023-05-16T10:42:16;33.70;99.90
22607;DHT22;11470;20.968;105.834;2023-05-16T10:47:24;33.40;99.90
22607;DHT22;11470;20.968;105.834;2023-05-16T10:52:33;33.20;99.90
22607;DHT22;11470;20.968;105.834;2023-05-16T10:57:39;33.10;99.90
22607;DHT22;11470;20.968;105.834;2023-05-16T11:02:49;32.90;99.90
22607;DHT22;11470;20.968;105.834;2023-05-16T11:08:06;32.80;99.90
22607;DHT22;11470;20.968;105.834;2023-05-16T11:13:13;32.70;99.90
22607;DHT22;11470;20.968;105.834;2023-05-16T11:18:26;32.50;99.90
22607;DHT22;11470;20.968;105.834;2023-05-16T11:23:32;32.30;99.90
22607;DHT22;11470;20.968;105.834;2023-05-16T11:28:38;32.20;99.90
22607;DHT22;11470;20.968;105.834;2023-05-16T11:33:45;32.10;99.90
22607;DHT22;11470;20.968;105.834;2023-05-16T11:38:51;32.00;99.90
22607;DHT22;11470;20.968;105.834;2023-05-16T11:43:57;31.90;99.90
22607;DHT22;11470;20.968;105.834;2023-05-16T11:49:03;31.80;99.90
22607;DHT22;11470;20.968;105.834;2023-05-16T11:54:12;31.70;99.90
22607;DHT22;11470;20.968;105.834;2023-05-16T11:59:22;31.60;99.90
22607;DHT22;11470;20.968;105.834;2023-05-16T12:04:26;31.50;99.90
22607;DHT22;11470;20.968;105.834;2023-05-16T12:09:33;31.30;99.90
22607;DHT22;11470;20.968;105.834;2023-05-16T12:14:38;31.30;99.90
22607;DHT22;11470;20.968;105.834;2023-05-16T12:19:48;31.20;99.90
22607;DHT22;11470;20.968;105.834;2023-05-16T12:24:57;31.00;99.90
22607;DHT22;11470;20.968;105.834;2023-05-16T12:30:09;30.90;99.90
22607;DHT22;11470;20.968;105.834;2023-05-16T12:35:18;30.80;99.90
22607;DHT22;11470;20.968;105.834;2023-05-16T12:40:23;30.70;99.90
22607;DHT22;11470;20.968;105.834;2023-05-16T12:45:33;30.60;99.90
22607;DHT22;11470;20.968;105.834;2023-05-16T12:50:39;30.50;99.90
22607;DHT22;11470;20.968;105.834;2023-05-16T12:55:46;30.40;99.90
22607;DHT22;11470;20.968;105.834;2023-05-16T13:00:51;30.40;99.90
22607;DHT22;11470;20.968;105.834;2023-05-16T13:05:59;30.30;99.90
22607;DHT22;11470;20.968;105.834;2023-05-16T13:11:04;30.30;99.90
22607;DHT22;11470;20.968;105.834;2023-05-16T13:16:11;30.20;99.90
22607;DHT22;11470;20.968;105.834;2023-05-16T13:21:16;30.10;99.90
22607;DHT22;11470;20.968;105.834;2023-05-16T13:26:22;30.00;99.90
22607;DHT22;11470;20.968;105.834;2023-05-16T13:31:27;30.00;99.90
22607;DHT22;11470;20.968;105.834;2023-05-16T13:36:34;30.00;99.90
22607;DHT22;11470;20.968;105.834;2023-05-16T13:41:59;29.90;99.90
22607;DHT22;11470;20.968;105.834;2023-05-16T13:47:45;29.90;99.90
22607;DHT22;11470;20.968;105.834;2023-05-16T13:58:28;29.80;99.90
22607;DHT22;11470;20.968;105.834;2023-05-16T14:03:44;29.80;99.90
22607;DHT22;11470;20.968;105.834;2023-05-16T14:08:52;29.70;99.90
22607;DHT22;11470;20.968;105.834;2023-05-16T14:13:58;29.70;99.90
22607;DHT22;11470;20.968;105.834;2023-05-16T14:19:06;29.60;99.90
22607;DHT22;11470;20.968;105.834;2023-05-16T14:24:13;29.50;99.90
22607;DHT22;11470;20.968;105.834;2023-05-16T14:29:18;29.40;99.90
22607;DHT22;11470;20.968;105.834;2023-05-16T14:34:24;29.40;99.90
22607;DHT22;11470;20.968;105.834;2023-05-16T14:39:30;29.30;99.90
22607;DHT22;11470;20.968;105.834;2023-05-16T14:44:36;29.30;99.90
22607;DHT22;11470;20.968;105.834;2023-05-16T14:49:41;29.10;99.90
22607;DHT22;11470;20.968;105.834;2023-05-16T14:54:51;29.20;99.90
22607;DHT22;11470;20.968;105.834;2023-05-16T14:59:57;29.10;99.90
22607;DHT22;11470;20.968;105.834;2023-05-16T15:05:03;29.10;99.90
22607;DHT22;11470;20.968;105.834;2023-05-16T15:10:15;29.00;99.90
22607;DHT22;11470;20.968;105.834;2023-05-16T15:16:09;29.00;99.90
22607;DHT22;11470;20.968;105.834;2023-05-16T15:21:15;28.90;99.90
22607;DHT22;11470;20.968;105.834;2023-05-16T15:26:22;28.80;99.90
22607;DHT22;11470;20.968;105.834;2023-05-16T15:31:28;28.70;99.90
22607;DHT22;11470;20.968;105.834;2023-05-16T15:36:38;28.60;99.90
22607;DHT22;11470;20.968;105.834;2023-05-16T15:41:44;28.80;99.90
22607;DHT22;11470;20.968;105.834;2023-05-16T15:47:10;28.90;99.90
22607;DHT22;11470;20.968;105.834;2023-05-16T15:52:16;28.80;99.90
22607;DHT22;11470;20.968;105.834;2023-05-16T15:57:29;28.60;99.90
22607;DHT22;11470;20.968;105.834;2023-05-16T16:02:35;28.40;99.90
22607;DHT22;11470;20.968;105.834;2023-05-16T16:07:44;28.40;99.90
22607;DHT22;11470;20.968;105.834;2023-05-16T16:13:00;28.40;99.90
22607;DHT22;11470;20.968;105.834;2023-05-16T16:18:06;28.60;99.90
22607;DHT22;11470;20.968;105.834;2023-05-16T16:23:15;28.70;99.90
22607;DHT22;11470;20.968;105.834;2023-05-16T16:28:20;28.60;99.90
22607;DHT22;11470;20.968;105.834;2023-05-16T16:33:25;28.40;99.90
22607;DHT22;11470;20.968;105.834;2023-05-16T16:38:32;28.40;99.90
22607;DHT22;11470;20.968;105.834;2023-05-16T16:43:37;28.50;99.90
22607;DHT22;11470;20.968;105.834;2023-05-16T16:48:44;28.30;99.90
22607;DHT22;11470;20.968;105.834;2023-05-16T16:53:49;28.30;99.90
22607;DHT22;11470;20.968;105.834;2023-05-16T16:58:55;28.10;99.90
22607;DHT22;11470;20.968;105.834;2023-05-16T17:04:00;28.00;99.90
22607;DHT22;11470;20.968;105.834;2023-05-16T17:09:06;27.90;99.90
22607;DHT22;11470;20.968;105.834;2023-05-16T17:14:17;27.80;99.90
22607;DHT22;11470;20.968;105.834;2023-05-16T17:19:26;27.90;99.90
22607;DHT22;11470;20.968;105.834;2023-05-16T17:45:10;27.70;99.90
22607;DHT22;11470;20.968;105.834;2023-05-16T17:51:49;27.80;99.90
22607;DHT22;11470;20.968;105.834;2023-05-16T17:56:58;27.80;99.90
22607;DHT22;11470;20.968;105.834;2023-05-16T18:02:08;27.70;99.90
22607;DHT22;11470;20.968;105.834;2023-05-16T18:35:26;27.30;99.90
22607;DHT22;11470;20.968;105.834;2023-05-16T18:40:34;27.20;99.90
22607;DHT22;11470;20.968;105.834;2023-05-16T18:45:39;27.20;99.90
22607;DHT22;11470;20.968;105.834;2023-05-16T18:50:45;27.20;99.90
22607;DHT22;11470;20.968;105.834;2023-05-16T18:55:50;27.10;99.90
22607;DHT22;11470;20.968;105.834;2023-05-16T19:00:59;27.10;99.90
22607;DHT22;11470;20.968;105.834;2023-05-16T19:06:05;27.00;99.90
22607;DHT22;11470;20.968;105.834;2023-05-16T19:11:45;27.00;99.90
22607;DHT22;11470;20.968;105.834;2023-05-16T19:36:42;26.90;99.90
22607;DHT22;11470;20.968;105.834;2023-05-16T19:41:47;26.90;99.90
22607;DHT22;11470;20.968;105.834;2023-05-16T19:47:09;26.90;99.90
22607;DHT22;11470;20.968;105.834;2023-05-16T19:52:15;27.00;99.90
22607;DHT22;11470;20.968;105.834;2023-05-16T19:57:20;26.90;99.90
22607;DHT22;11470;20.968;105.834;2023-05-16T20:02:26;26.90;99.90
22607;DHT22;11470;20.968;105.834;2023-05-16T20:07:34;26.90;99.90
22607;DHT22;11470;20.968;105.834;2023-05-16T20:12:39;26.90;99.90
22607;DHT22;11470;20.968;105.834;2023-05-16T20:17:44;26.80;99.90
22607;DHT22;11470;20.968;105.834;2023-05-16T20:22:50;26.80;99.90
22607;DHT22;11470;20.968;105.834;2023-05-16T20:27:55;26.80;99.90
22607;DHT22;11470;20.968;105.834;2023-05-16T20:33:00;26.80;99.90
22607;DHT22;11470;20.968;105.834;2023-05-16T20:38:05;26.80;99.90
22607;DHT22;11470;20.968;105.834;2023-05-16T20:43:11;27.00;99.90
22607;DHT22;11470;20.968;105.834;2023-05-16T20:48:16;27.20;99.90
22607;DHT22;11470;20.968;105.834;2023-05-16T20:53:21;27.10;99.90
22607;DHT22;11470;20.968;105.834;2023-05-16T20:58:27;27.00;99.90
22607;DHT22;11470;20.968;105.834;2023-05-16T21:03:32;27.00;99.90
22607;DHT22;11470;20.968;105.834;2023-05-16T21:08:38;26.90;99.90
22607;DHT22;11470;20.968;105.834;2023-05-16T21:13:44;26.90;99.90
22607;DHT22;11470;20.968;105.834;2023-05-16T21:18:49;27.00;99.90
22607;DHT22;11470;20.968;105.834;2023-05-16T21:23:54;27.00;99.90
22607;DHT22;11470;20.968;105.834;2023-05-16T21:29:00;27.00;99.90
22607;DHT22;11470;20.968;105.834;2023-05-16T21:34:05;26.90;99.90
22607;DHT22;11470;20.968;105.834;2023-05-16T21:39:11;26.90;99.90
22607;DHT22;11470;20.968;105.834;2023-05-16T21:44:17;26.90;99.90
22607;DHT22;11470;20.968;105.834;2023-05-16T21:49:23;26.80;99.90
22607;DHT22;11470;20.968;105.834;2023-05-16T22:00:26;26.80;99.90
22607;DHT22;11470;20.968;105.834;2023-05-16T22:05:32;26.80;99.90
22607;DHT22;11470;20.968;105.834;2023-05-16T22:10:38;26.80;99.90
22607;DHT22;11470;20.968;105.834;2023-05-16T22:15:44;26.70;99.90
22607;DHT22;11470;20.968;105.834;2023-05-16T22:21:06;26.60;99.90
22607;DHT22;11470;20.968;105.834;2023-05-16T22:26:11;26.60;99.90
22607;DHT22;11470;20.968;105.834;2023-05-16T22:31:17;26.60;99.90
22607;DHT22;11470;20.968;105.834;2023-05-16T22:42:00;26.80;99.90
22607;DHT22;11470;20.968;105.834;2023-05-16T22:47:06;26.90;99.90
22607;DHT22;11470;20.968;105.834;2023-05-16T22:52:12;26.90;99.90
22607;DHT22;11470;20.968;105.834;2023-05-16T22:57:17;27.00;99.90
22607;DHT22;11470;20.968;105.834;2023-05-16T23:02:22;27.10;99.90
22607;DHT22;11470;20.968;105.834;2023-05-16T23:07:27;27.30;99.90
22607;DHT22;11470;20.968;105.834;2023-05-16T23:12:35;27.50;99.90
22607;DHT22;11470;20.968;105.834;2023-05-16T23:17:41;27.60;99.90
22607;DHT22;11470;20.968;105.834;2023-05-16T23:22:47;27.90;99.90
22607;DHT22;11470;20.968;105.834;2023-05-16T23:27:52;28.00;99.90
22607;DHT22;11470;20.968;105.834;2023-05-16T23:33:01;28.20;99.90
22607;DHT22;11470;20.968;105.834;2023-05-16T23:38:06;28.30;99.90
22607;DHT22;11470;20.968;105.834;2023-05-16T23:43:11;28.30;99.90
22607;DHT22;11470;20.968;105.834;2023-05-16T23:48:17;28.40;99.90
22607;DHT22;11470;20.968;105.834;2023-05-16T23:53:22;28.50;99.90
22607;DHT22;11470;20.968;105.834;2023-05-16T23:58:32;28.60;99.90
